createdAt,value
2023-02-11T00:01:38.055Z,102378.34
2023-02-11T00:04:07.546Z,102380.30
2023-02-11T00:06:36.709Z,102374.16
2023-02-11T00:09:05.929Z,102371.73
2023-02-11T00:11:34.945Z,102365.30
2023-02-11T00:14:08.085Z,102358.60
2023-02-11T00:16:36.721Z,102363.66
2023-02-11T00:19:06.684Z,102358.05
2023-02-11T00:21:35.207Z,102358.52
2023-02-11T00:24:03.981Z,102356.05
2023-02-11T00:26:35.473Z,102358.33
2023-02-11T00:29:05.834Z,102356.86
2023-02-11T00:31:34.479Z,102354.51
2023-02-11T00:34:03.102Z,102357.74
2023-02-11T00:36:31.902Z,102353.56
2023-02-11T00:39:01.112Z,102348.50
2023-02-11T00:41:29.945Z,102345.93
2023-02-11T00:44:02.640Z,102349.86
2023-02-11T00:46:31.147Z,102349.48
2023-02-11T00:48:59.648Z,102355.35
2023-02-11T00:51:29.307Z,102353.36
2023-02-11T00:53:57.986Z,102350.11
2023-02-11T00:56:27.340Z,102356.08
2023-02-11T00:58:58.012Z,102349.16
2023-02-11T01:01:27.003Z,102345.17
2023-02-11T01:03:55.562Z,102336.05
2023-02-11T01:06:25.025Z,102340.02
2023-02-11T01:08:53.687Z,102339.36
2023-02-11T01:11:22.900Z,102336.52
2023-02-11T01:13:51.678Z,102335.09
2023-02-11T01:16:21.694Z,102328.92
2023-02-11T01:18:50.224Z,102325.27
2023-02-11T01:21:19.724Z,102325.20
2023-02-11T01:23:48.261Z,102324.77
2023-02-11T01:26:17.123Z,102323.17
2023-02-11T01:28:45.664Z,102321.98
2023-02-11T01:31:15.292Z,102315.30
2023-02-11T01:33:43.781Z,102313.10
2023-02-11T01:36:13.111Z,102308.52
2023-02-11T01:38:41.956Z,102311.36
2023-02-11T01:41:14.776Z,102306.55
2023-02-11T01:43:47.775Z,102306.98
2023-02-11T01:46:37.851Z,102308.09
2023-02-11T01:49:15.052Z,102302.57
2023-02-11T01:51:59.201Z,102300.83
2023-02-11T01:54:54.066Z,102298.44
2023-02-11T01:57:29.033Z,102296.38
2023-02-11T02:00:10.053Z,102296.30
2023-02-11T02:03:05.547Z,102294.70
2023-02-11T02:05:56.181Z,102293.68
2023-02-11T02:08:41.213Z,102295.61
2023-02-11T02:11:10.017Z,102296.95
2023-02-11T02:13:39.150Z,102293.53
2023-02-11T02:16:13.284Z,102294.71
2023-02-11T02:19:06.506Z,102298.23
2023-02-11T02:22:10.609Z,102297.58
2023-02-11T02:25:01.277Z,102293.51
2023-02-11T02:27:42.852Z,102296.26
2023-02-11T02:30:40.318Z,102294.52
2023-02-11T02:33:47.087Z,102290.69
2023-02-11T02:36:59.267Z,102287.50
2023-02-11T02:39:34.966Z,102289.76
2023-02-11T02:42:05.475Z,102288.27
2023-02-11T02:44:34.296Z,102286.50
2023-02-11T02:47:02.959Z,102288.33
2023-02-11T02:49:31.588Z,102288.60
2023-02-11T02:52:32.130Z,102287.55
2023-02-11T02:55:12.780Z,102287.64
2023-02-11T02:58:23.361Z,102295.42
2023-02-11T03:01:19.984Z,102294.76
2023-02-11T03:04:29.733Z,102288.86
2023-02-11T03:07:16.661Z,102289.40
2023-02-11T03:10:17.328Z,102289.48
2023-02-11T03:12:47.397Z,102290.35
2023-02-11T03:15:20.118Z,102286.06
2023-02-11T03:17:52.645Z,102285.64
2023-02-11T03:20:23.250Z,102281.95
2023-02-11T03:23:03.516Z,102276.08
2023-02-11T03:25:42.315Z,102280.02
2023-02-11T03:28:55.313Z,102280.66
2023-02-11T03:31:37.758Z,102273.11
2023-02-11T03:34:31.334Z,102275.53
2023-02-11T03:37:33.075Z,102269.89
2023-02-11T03:40:25.640Z,102270.70
2023-02-11T03:43:31.564Z,102266.85
2023-02-11T03:46:01.498Z,102276.58
2023-02-11T03:48:42.315Z,102276.73
2023-02-11T03:51:14.307Z,102274.42
2023-02-11T03:53:46.795Z,102272.45
2023-02-11T03:56:23.889Z,102272.72
2023-02-11T03:58:52.326Z,102270.20
2023-02-11T04:01:21.018Z,102272.38
2023-02-11T04:03:49.601Z,102268.51
2023-02-11T04:06:18.159Z,102268.52
2023-02-11T04:08:46.616Z,102260.22
2023-02-11T04:11:14.985Z,102260.22
2023-02-11T04:13:43.432Z,102254.23
2023-02-11T04:16:11.870Z,102254.25
2023-02-11T04:18:40.340Z,102249.67
2023-02-11T04:21:09.682Z,102254.65
2023-02-11T04:23:38.243Z,102251.63
2023-02-11T04:26:07.154Z,102248.86
2023-02-11T04:28:36.502Z,102250.80
2023-02-11T04:31:05.576Z,102249.63
2023-02-11T04:33:34.181Z,102249.02
2023-02-11T04:36:02.701Z,102243.48
2023-02-11T04:38:31.105Z,102234.11
2023-02-11T04:41:00.769Z,102227.77
2023-02-11T04:43:29.252Z,102224.47
2023-02-11T04:45:59.006Z,102223.15
2023-02-11T04:48:27.619Z,102218.94
2023-02-11T04:50:56.185Z,102214.84
2023-02-11T04:53:24.660Z,102215.55
2023-02-11T04:55:53.448Z,102212.73
2023-02-11T04:58:21.901Z,102205.71
2023-02-11T05:00:50.372Z,102206.67
2023-02-11T05:03:18.972Z,102209.48
2023-02-11T05:05:48.021Z,102206.80
2023-02-11T05:08:16.522Z,102207.53
2023-02-11T05:10:47.763Z,102207.41
2023-02-11T05:13:16.352Z,102202.39
2023-02-11T05:15:44.825Z,102198.48
2023-02-11T05:18:15.149Z,102194.35
2023-02-11T05:20:44.101Z,102196.75
2023-02-11T05:23:12.753Z,102199.77
2023-02-11T05:25:41.212Z,102194.33
2023-02-11T05:28:09.816Z,102192.86
2023-02-11T05:30:38.270Z,102190.27
2023-02-11T05:33:06.921Z,102190.66
2023-02-11T05:35:35.390Z,102191.02
2023-02-11T05:38:03.837Z,102187.73
2023-02-11T05:40:32.398Z,102188.36
2023-02-11T05:43:00.908Z,102190.42
2023-02-11T05:45:29.385Z,102193.48
2023-02-11T05:47:58.410Z,102197.82
2023-02-11T05:50:26.849Z,102196.38
2023-02-11T05:52:55.268Z,102196.45
2023-02-11T05:55:23.890Z,102196.95
2023-02-11T05:57:52.325Z,102199.30
2023-02-11T06:00:20.953Z,102197.61
2023-02-11T06:02:49.550Z,102196.77
2023-02-11T06:05:18.265Z,102193.77
2023-02-11T06:07:46.718Z,102195.69
2023-02-11T06:10:15.390Z,102195.66
2023-02-11T06:12:45.093Z,102196.86
2023-02-11T06:15:13.580Z,102197.34
2023-02-11T06:17:42.039Z,102191.29
2023-02-11T06:20:11.472Z,102190.94
2023-02-11T06:22:39.938Z,102189.95
2023-02-11T06:25:08.737Z,102193.26
2023-02-11T06:27:38.318Z,102194.23
2023-02-11T06:30:08.285Z,102188.30
2023-02-11T06:32:44.434Z,102186.34
2023-02-11T06:35:14.938Z,102189.23
2023-02-11T06:37:43.485Z,102193.23
2023-02-11T06:40:12.369Z,102191.39
2023-02-11T06:42:40.923Z,102193.89
2023-02-11T06:45:11.268Z,102197.31
2023-02-11T06:47:40.747Z,102197.00
2023-02-11T06:50:13.383Z,102194.33
2023-02-11T06:52:41.949Z,102197.44
2023-02-11T06:55:10.474Z,102199.09
2023-02-11T06:57:38.918Z,102193.39
2023-02-11T07:00:08.358Z,102187.48
2023-02-11T07:02:36.942Z,102186.00
2023-02-11T07:05:07.851Z,102183.65
2023-02-11T07:07:37.225Z,102187.62
2023-02-11T07:10:06.717Z,102187.50
2023-02-11T07:12:35.227Z,102184.52
2023-02-11T07:15:04.309Z,102180.39
2023-02-11T07:17:35.210Z,102183.55
2023-02-11T07:20:04.200Z,102186.66
2023-02-11T07:22:34.451Z,102189.11
2023-02-11T07:25:02.916Z,102186.75
2023-02-11T07:27:31.375Z,102184.86
2023-02-11T07:29:59.818Z,102181.92
2023-02-11T07:32:28.225Z,102182.98
2023-02-11T07:34:56.730Z,102177.77
2023-02-11T07:37:25.344Z,102179.30
2023-02-11T07:39:53.789Z,102177.65
2023-02-11T07:42:22.214Z,102170.10
2023-02-11T07:44:50.805Z,102175.12
2023-02-11T07:47:19.219Z,102168.20
2023-02-11T07:49:47.817Z,102167.83
2023-02-11T07:52:16.240Z,102159.83
2023-02-11T07:54:44.661Z,102150.46
2023-02-11T07:57:13.076Z,102147.79
2023-02-11T07:59:41.468Z,102145.23
2023-02-11T08:02:10.487Z,102145.46
2023-02-11T08:04:39.190Z,102138.96
2023-02-11T08:07:07.681Z,102131.64
2023-02-11T08:09:36.064Z,102123.29
2023-02-11T08:12:04.935Z,102115.78
2023-02-11T08:14:33.355Z,102116.54
2023-02-11T08:17:01.833Z,102113.29
2023-02-11T08:19:30.545Z,102114.67
2023-02-11T08:22:00.828Z,102106.29
2023-02-11T08:24:29.208Z,102093.45
2023-02-11T08:38:14.587Z,102069.27
2023-02-11T08:40:41.920Z,102067.19
2023-02-11T08:43:08.914Z,102060.89
2023-02-11T08:45:37.149Z,102061.11
2023-02-11T08:48:04.253Z,102058.56
2023-02-11T08:50:31.739Z,102056.11
2023-02-11T08:52:58.969Z,102051.07
2023-02-11T08:55:26.074Z,102049.88
2023-02-11T08:57:53.110Z,102046.92
2023-02-11T09:00:22.269Z,102040.64
2023-02-11T09:02:49.298Z,102042.23
2023-02-11T09:05:16.501Z,102041.45
2023-02-11T09:07:43.620Z,102035.23
2023-02-11T09:10:10.738Z,102037.91
2023-02-11T09:12:37.759Z,102037.93
2023-02-11T09:15:05.212Z,102032.41
2023-02-11T09:17:32.272Z,102026.22
2023-02-11T09:19:59.511Z,102019.45
2023-02-11T09:22:26.660Z,102013.02
2023-02-11T09:24:53.860Z,102007.48
2023-02-11T09:27:20.962Z,102006.95
2023-02-11T09:29:47.997Z,101997.50
2023-02-11T09:32:15.241Z,101988.04
2023-02-11T09:34:42.398Z,101980.57
2023-02-11T09:37:09.463Z,101973.36
2023-02-11T09:39:36.469Z,101964.59
2023-02-11T09:42:25.383Z,101957.77
2023-02-11T09:44:52.715Z,101956.05
2023-02-11T09:47:32.901Z,101962.64
2023-02-11T09:50:11.882Z,101962.34
2023-02-11T09:53:01.918Z,101947.20
2023-02-11T09:55:42.149Z,101942.61
2023-02-11T09:58:14.647Z,101945.45
2023-02-11T10:01:25.345Z,101929.96
2023-02-11T10:04:05.957Z,101919.72
2023-02-11T10:06:35.738Z,101920.09
2023-02-11T10:09:27.643Z,101912.35
2023-02-11T10:12:23.598Z,101903.35
2023-02-11T10:15:25.141Z,101900.69
2023-02-11T10:18:31.553Z,101888.00
2023-02-11T10:21:16.541Z,101874.98
2023-02-11T10:23:51.242Z,101874.38
2023-02-11T10:26:19.422Z,101862.77
2023-02-11T10:28:52.365Z,101859.41
2023-02-11T10:31:29.767Z,101854.38
2023-02-11T10:34:06.539Z,101852.66
2023-02-11T10:36:37.416Z,101844.12
2023-02-11T10:39:17.174Z,101835.87
2023-02-11T10:42:12.076Z,101832.56
2023-02-11T10:44:42.015Z,101817.23
2023-02-11T10:47:18.122Z,101805.64
2023-02-11T10:49:46.912Z,101800.80
2023-02-11T10:52:26.618Z,101795.02
2023-02-11T10:55:05.997Z,101795.60
2023-02-11T10:57:53.905Z,101790.45
2023-02-11T11:00:42.129Z,101778.20
2023-02-11T11:03:22.957Z,101774.56
2023-02-11T11:05:59.852Z,101763.77
2023-02-11T11:08:45.345Z,101760.63
2023-02-11T11:11:19.216Z,101763.29
2023-02-11T11:13:52.090Z,101758.47
2023-02-11T11:16:34.836Z,101757.52
2023-02-11T11:19:08.054Z,101753.90
2023-02-11T11:21:45.417Z,101746.97
2023-02-11T11:24:34.611Z,101742.45
2023-02-11T11:27:04.731Z,101736.45
2023-02-11T11:29:55.089Z,101732.21
2023-02-11T11:32:31.947Z,101732.42
2023-02-11T11:35:03.305Z,101724.33
2023-02-11T11:37:34.438Z,101716.14
2023-02-11T11:40:16.756Z,101706.04
2023-02-11T11:42:44.028Z,101698.73
2023-02-11T11:45:19.206Z,101692.83
2023-02-11T11:47:55.709Z,101687.30
2023-02-11T11:50:50.888Z,101677.36
2023-02-11T11:53:40.911Z,101674.17
2023-02-11T11:56:28.132Z,101662.48
2023-02-11T11:58:56.211Z,101651.05
2023-02-11T12:02:01.548Z,101638.46
2023-02-11T12:04:46.808Z,101627.32
2023-02-11T12:07:58.663Z,101620.66
2023-02-11T12:10:51.001Z,101615.65
2023-02-11T12:13:59.908Z,101614.38
2023-02-11T12:17:21.030Z,101606.56
2023-02-11T12:20:12.344Z,101600.02
2023-02-11T12:23:15.955Z,101609.95
2023-02-11T12:25:56.824Z,101602.73
2023-02-11T12:29:08.564Z,101602.05
2023-02-11T12:32:03.407Z,101596.41
2023-02-11T12:34:34.903Z,101600.94
2023-02-11T12:37:15.791Z,101595.21
2023-02-11T12:39:57.739Z,101593.21
2023-02-11T12:42:50.140Z,101593.35
2023-02-11T12:46:01.965Z,101598.71
2023-02-11T12:49:03.236Z,101597.19
2023-02-11T12:52:22.244Z,101588.85
2023-02-11T12:55:23.842Z,101574.96
2023-02-11T12:57:53.907Z,101567.39
2023-02-11T13:00:45.185Z,101568.09
2023-02-11T13:03:23.079Z,101567.88
2023-02-11T13:06:00.211Z,101564.19
2023-02-11T13:09:04.012Z,101553.40
2023-02-11T13:11:51.393Z,101543.85
2023-02-11T13:14:32.175Z,101533.94
2023-02-11T13:16:59.313Z,101521.58
2023-02-11T13:19:36.289Z,101509.56
2023-02-11T13:22:11.823Z,101506.34
2023-02-11T13:25:26.393Z,101515.36
2023-02-11T13:28:36.980Z,101513.95
2023-02-11T13:31:07.294Z,101512.44
2023-02-11T13:33:38.944Z,101509.10
2023-02-11T13:36:05.916Z,101510.83
2023-02-11T13:38:33.783Z,101510.66
2023-02-11T13:41:34.578Z,101511.27
2023-02-11T13:44:09.069Z,101514.55
2023-02-11T13:47:05.062Z,101507.82
2023-02-11T13:49:48.710Z,101494.88
2023-02-11T13:52:33.733Z,101489.90
2023-02-11T13:55:13.122Z,101485.96
2023-02-11T13:57:41.738Z,101486.94
2023-02-11T14:00:33.413Z,101488.15
2023-02-11T14:03:31.129Z,101487.52
2023-02-11T14:06:25.967Z,101477.98
2023-02-11T14:09:08.463Z,101469.48
2023-02-11T14:11:44.450Z,101465.24
2023-02-11T14:14:24.983Z,101467.37
2023-02-11T14:16:58.233Z,101461.65
2023-02-11T14:30:49.430Z,101456.34
2023-02-11T14:33:28.071Z,101456.48
2023-02-11T14:36:31.793Z,101458.80
2023-02-11T14:39:48.124Z,101452.58
2023-02-11T14:42:22.596Z,101449.59
2023-02-11T14:44:55.197Z,101446.86
2023-02-11T14:47:43.310Z,101440.77
2023-02-11T14:50:44.922Z,101439.20
2023-02-11T15:04:23.997Z,101431.11
2023-02-11T15:06:54.589Z,101433.05
2023-02-11T15:09:29.592Z,101431.92
2023-02-11T15:11:58.698Z,101428.21
2023-02-11T15:14:32.239Z,101427.92
2023-02-11T15:17:07.969Z,101424.38
2023-02-11T15:19:41.490Z,101423.19
2023-02-11T15:22:24.975Z,101424.86
2023-02-11T15:25:10.143Z,101426.14
2023-02-11T15:27:47.548Z,101426.98
2023-02-11T15:30:22.112Z,101421.51
2023-02-11T15:32:58.997Z,101418.56
2023-02-11T15:35:41.370Z,101415.50
2023-02-11T15:38:13.785Z,101417.41
2023-02-11T15:40:55.256Z,101411.56
2023-02-11T15:43:23.658Z,101415.52
2023-02-11T15:45:52.133Z,101413.70
2023-02-11T15:48:47.707Z,101410.44
2023-02-11T15:51:31.439Z,101408.88
2023-02-11T15:54:04.490Z,101411.35
2023-02-11T15:56:44.372Z,101410.39
2023-02-11T15:59:47.534Z,101404.70
2023-02-11T16:02:33.533Z,101406.39
2023-02-11T16:05:08.552Z,101404.52
2023-02-11T16:07:43.260Z,101406.90
2023-02-11T16:10:27.201Z,101400.02
2023-02-11T16:13:07.684Z,101406.70
2023-02-11T16:15:43.682Z,101396.48
2023-02-11T16:18:38.779Z,101398.55
2023-02-11T16:21:19.161Z,101393.88
2023-02-11T16:23:55.008Z,101395.22
2023-02-11T16:26:39.428Z,101403.31
2023-02-11T16:29:13.005Z,101397.61
2023-02-11T16:31:47.686Z,101400.09
2023-02-11T16:34:26.305Z,101389.25
2023-02-11T16:36:54.712Z,101383.40
2023-02-11T16:39:23.271Z,101381.11
2023-02-11T16:41:52.641Z,101378.63
2023-02-11T16:44:21.147Z,101378.89
2023-02-11T16:46:49.827Z,101376.04
2023-02-11T16:49:18.251Z,101376.05
2023-02-11T16:51:50.392Z,101370.64
2023-02-11T16:54:20.292Z,101374.65
2023-02-11T16:56:49.771Z,101375.24
2023-02-11T16:59:18.214Z,101368.45
2023-02-11T17:01:48.388Z,101361.64
2023-02-11T17:04:30.480Z,101359.42
2023-02-11T17:06:59.632Z,101359.16
2023-02-11T17:09:30.868Z,101352.47
2023-02-11T17:12:00.816Z,101350.95
2023-02-11T17:14:29.366Z,101352.89
2023-02-11T17:16:58.066Z,101356.48
2023-02-11T17:19:26.624Z,101351.06
2023-02-11T17:21:55.105Z,101351.96
2023-02-11T17:24:23.764Z,101351.29
2023-02-11T17:26:52.196Z,101345.65
2023-02-11T17:29:23.976Z,101347.59
2023-02-11T17:31:53.898Z,101340.81
2023-02-11T17:34:23.245Z,101345.27
2023-02-11T17:36:52.148Z,101344.75
2023-02-11T17:39:21.392Z,101340.48
2023-02-11T17:41:49.826Z,101338.09
2023-02-11T17:44:18.332Z,101334.77
2023-02-11T17:46:46.829Z,101326.83
2023-02-11T17:49:16.509Z,101322.75
2023-02-11T17:51:45.076Z,101321.00
2023-02-11T17:54:17.647Z,101319.04
2023-02-11T17:56:49.297Z,101320.23
2023-02-11T17:59:18.789Z,101321.02
2023-02-11T18:01:47.778Z,101322.80
2023-02-11T18:04:19.382Z,101325.73
2023-02-11T18:06:47.902Z,101323.55
2023-02-11T18:09:16.369Z,101323.54
2023-02-11T18:11:44.926Z,101324.22
2023-02-11T18:14:13.382Z,101324.21
2023-02-11T18:16:44.981Z,101326.17
2023-02-11T18:19:14.249Z,101329.83
2023-02-11T18:21:42.827Z,101327.55
2023-02-11T18:24:11.823Z,101329.36
2023-02-11T18:26:40.402Z,101326.49
2023-02-11T18:40:26.748Z,101301.71
2023-02-11T18:42:53.852Z,101308.13
2023-02-11T18:45:20.914Z,101312.32
2023-02-11T18:47:47.931Z,101310.85
2023-02-11T18:50:15.626Z,101307.33
2023-02-11T18:52:42.720Z,101303.90
2023-02-11T18:55:09.870Z,101298.86
2023-02-11T18:57:37.314Z,101304.55
2023-02-11T19:00:07.630Z,101315.50
2023-02-11T19:02:34.786Z,101299.04
2023-02-11T19:05:05.297Z,101279.96
2023-02-11T19:07:32.463Z,101282.19
2023-02-11T19:09:59.650Z,101280.70
2023-02-11T19:12:26.691Z,101286.71
2023-02-11T19:14:53.777Z,101291.77
2023-02-11T19:17:20.817Z,101290.38
2023-02-11T19:19:47.871Z,101285.39
2023-02-11T19:22:15.071Z,101281.28
2023-02-11T19:24:42.376Z,101276.16
2023-02-11T19:27:09.708Z,101282.74
2023-02-11T19:29:37.181Z,101281.23
2023-02-11T19:32:05.677Z,101284.42
2023-02-11T19:34:40.391Z,101290.38
2023-02-11T19:37:11.892Z,101292.05
2023-02-11T19:39:41.317Z,101293.88
2023-02-11T19:42:08.757Z,101294.58
2023-02-11T19:44:35.865Z,101293.15
2023-02-11T19:47:03.292Z,101297.73
2023-02-11T19:49:30.336Z,101304.83
2023-02-11T19:51:57.709Z,101309.08
2023-02-11T19:54:28.443Z,101307.76
2023-02-11T19:56:57.000Z,101311.67
2023-02-11T19:59:24.290Z,101306.72
2023-02-11T20:01:52.714Z,101299.30
2023-02-11T20:04:20.047Z,101298.45
2023-02-11T20:06:49.854Z,101294.81
2023-02-11T20:09:16.921Z,101293.77
2023-02-11T20:11:44.592Z,101299.05
2023-02-11T20:14:14.815Z,101299.48
2023-02-11T20:16:48.736Z,101297.70
2023-02-11T20:19:20.790Z,101306.88
2023-02-11T20:21:52.430Z,101308.19
2023-02-11T20:24:19.894Z,101305.70
2023-02-11T20:26:48.776Z,101301.42
2023-02-11T20:29:17.258Z,101299.19
2023-02-11T20:31:44.760Z,101292.27
2023-02-11T20:34:12.164Z,101291.93
2023-02-11T20:36:40.089Z,101292.15
2023-02-11T20:39:07.975Z,101294.92
2023-02-11T20:41:39.299Z,101290.70
2023-02-11T20:44:10.115Z,101293.04
2023-02-11T20:46:40.593Z,101280.61
2023-02-11T20:49:11.537Z,101260.23
2023-02-11T20:51:39.416Z,101256.41
2023-02-11T20:54:10.925Z,101246.49
2023-02-11T20:56:39.180Z,101245.58
2023-02-11T20:59:06.646Z,101245.19
2023-02-11T21:01:37.115Z,101236.62
2023-02-11T21:04:13.997Z,101243.13
2023-02-11T21:06:48.235Z,101241.23
2023-02-11T21:09:21.063Z,101245.73
2023-02-11T21:11:50.972Z,101249.48
2023-02-11T21:14:19.400Z,101249.27
2023-02-11T21:16:47.872Z,101244.00
2023-02-11T21:19:15.405Z,101238.52
2023-02-11T21:21:43.293Z,101247.80
2023-02-11T21:24:10.898Z,101255.71
2023-02-11T21:26:39.142Z,101256.31
2023-02-11T21:29:07.898Z,101256.09
2023-02-11T21:31:36.742Z,101254.55
2023-02-11T21:34:05.441Z,101250.76
2023-02-11T21:36:33.432Z,101247.77
2023-02-11T21:39:01.372Z,101255.98
2023-02-11T21:41:28.521Z,101249.13
2023-02-11T21:43:56.375Z,101258.58
2023-02-11T21:46:23.777Z,101261.08
2023-02-11T21:48:51.005Z,101261.19
2023-02-11T21:51:25.419Z,101263.63
2023-02-11T22:03:29.420Z,101269.33
2023-02-11T22:05:57.956Z,101271.29
2023-02-11T22:08:26.565Z,101267.98
2023-02-11T22:11:04.171Z,101269.72
2023-02-11T22:13:33.835Z,101268.74
2023-02-11T22:16:06.660Z,101268.09
2023-02-11T22:18:36.171Z,101263.80
2023-02-11T22:21:11.536Z,101264.07
2023-02-11T22:23:40.666Z,101262.23
2023-02-11T22:26:14.998Z,101265.53
2023-02-11T22:28:44.510Z,101265.38
2023-02-11T22:31:20.598Z,101269.82
2023-02-11T22:33:49.851Z,101265.76
2023-02-11T22:36:24.497Z,101271.61
2023-02-11T22:38:54.335Z,101278.88
2023-02-11T22:41:23.995Z,101283.23
2023-02-11T22:43:52.594Z,101283.77
2023-02-11T22:46:21.291Z,101284.53
2023-02-11T22:48:50.287Z,101282.36
2023-02-11T22:51:23.958Z,101281.93
2023-02-11T22:53:58.812Z,101289.90
2023-02-11T22:56:29.349Z,101282.85
2023-02-11T22:59:05.794Z,101281.92
2023-02-11T23:01:35.131Z,101283.48
2023-02-11T23:04:06.613Z,101286.05
2023-02-11T23:06:35.929Z,101281.00
2023-02-11T23:09:09.168Z,101280.84
2023-02-11T23:11:38.193Z,101281.05
2023-02-11T23:14:08.680Z,101276.72
2023-02-11T23:16:37.208Z,101275.02
2023-02-11T23:19:09.160Z,101270.14
2023-02-11T23:21:39.614Z,101269.32
2023-02-11T23:24:13.325Z,101267.32
2023-02-11T23:26:43.453Z,101260.98
2023-02-11T23:29:12.929Z,101263.25
2023-02-11T23:31:46.179Z,101254.63
2023-02-11T23:34:17.407Z,101254.75
2023-02-11T23:36:46.331Z,101247.85
2023-02-11T23:39:17.131Z,101249.15
2023-02-11T23:41:46.869Z,101246.88
2023-02-11T23:44:15.450Z,101233.30
2023-02-11T23:46:44.108Z,101227.29
2023-02-11T23:49:12.604Z,101231.48
2023-02-11T23:51:41.043Z,101234.45
2023-02-11T23:54:14.848Z,101231.73
2023-02-11T23:56:44.068Z,101232.73
2023-02-11T23:59:12.904Z,101234.72
